Aviation Digital Data Service (ADDS)

Output produced by TAFs form (0843 UTC 25 October 2014)
found at http://aviationweather.gov/adds/tafs/
 
KHOB 250530Z 2506/2606 20006KT P6SM SKC 
     FM251000 20004KT P6SM SKC 
     TEMPO 2511/2514 OVC002 
     FM251500 19008KT P6SM SKC